Time;durP1;ratioP1;P1;durP2;ratioP2;P2;SDS_P1;SDS_P2;PMS_P1;PMS_P2;Temp;Humidity;BMP_temperature;BMP_pressure;BME280_temperature;BME280_humidity;BME280_pressure;Samples;Min_cycle;Max_cycle;Signal;HPM_P1;HPM_P2
2021/03/21 00:02:02;;;;;;;6.30;5.47;;;-3.20;90.80;;;;;;5071129;28;20049;-78
2021/03/21 00:04:30;;;;;;;8.50;6.38;;;-3.20;91.30;;;;;;5053807;28;20048;-78
2021/03/21 00:06:57;;;;;;;9.88;6.55;;;-3.20;91.60;;;;;;5073137;28;20051;-88
2021/03/21 00:10:32;;;;;;;6.88;5.18;;;-3.10;91.30;;;;;;5042575;28;20045;-88
2021/03/21 00:13:03;;;;;;;10.50;6.15;;;-3.10;91.60;;;;;;5034667;28;20052;-88
2021/03/21 00:15:34;;;;;;;7.32;4.88;;;-3.10;90.80;;;;;;5023356;28;20064;-88
2021/03/21 00:18:02;;;;;;;7.90;6.85;;;-3.10;91.30;;;;;;5012987;28;20057;-76
2021/03/21 00:20:33;;;;;;;9.30;6.63;;;-3.10;91.40;;;;;;5028999;28;20046;-76
2021/03/21 00:23:01;;;;;;;6.97;6.20;;;-3.10;91.20;;;;;;5029139;28;20451;-76
2021/03/21 00:25:31;;;;;;;7.25;5.47;;;-3.10;91.70;;;;;;5028584;28;20519;-76
2021/03/21 00:27:59;;;;;;;7.40;6.78;;;-3.00;91.20;;;;;;5028909;28;20120;-76
2021/03/21 00:30:41;;;;;;;12.20;8.27;;;-3.00;91.20;;;;;;5030529;28;20045;-88
2021/03/21 00:33:11;;;;;;;;;;;-2.90;90.90;;;;;;5014641;28;20048;-88
2021/03/21 00:35:50;;;;;;;6.03;5.35;;;-2.90;90.50;;;;;;5014680;28;20056;-88
2021/03/21 00:38:34;;;;;;;6.57;4.85;;;-2.90;90.20;;;;;;5021168;28;20057;-88
2021/03/21 00:41:30;;;;;;;4.53;3.95;;;-2.80;90.10;;;;;;5034357;28;20040;-88
2021/03/21 00:44:15;;;;;;;9.00;6.03;;;-2.80;90.00;;;;;;5038490;28;20045;-89
2021/03/21 00:47:26;;;;;;;7.15;6.47;;;-2.80;88.50;;;;;;5052291;28;20402;-88
2021/03/21 00:50:52;;;;;;;6.07;4.55;;;-2.80;89.00;;;;;;5012289;28;20037;-89
2021/03/21 00:53:42;;;;;;;6.65;6.05;;;-2.80;90.00;;;;;;5022568;28;20036;-88
2021/03/21 00:56:33;;;;;;;5.78;4.95;;;-2.80;89.90;;;;;;5038754;28;20475;-88
2021/03/21 00:59:11;;;;;;;6.25;5.63;;;-2.80;88.40;;;;;;5009160;28;20044;-88
2021/03/21 01:02:18;;;;;;;8.30;5.97;;;-2.80;88.20;;;;;;5013451;28;20036;-88
2021/03/21 01:05:22;;;;;;;5.22;4.72;;;-2.80;89.20;;;;;;5024054;28;20049;-89
2021/03/21 01:07:54;;;;;;;8.18;5.68;;;-2.80;87.30;;;;;;5023217;28;20055;-89
2021/03/21 01:10:38;;;;;;;8.32;6.50;;;-2.80;86.40;;;;;;5052016;28;20051;-88
2021/03/21 01:13:33;;;;;;;8.30;7.38;;;-2.70;87.10;;;;;;5032296;28;20056;-88
2021/03/21 01:16:23;;;;;;;10.00;6.38;;;-2.80;88.40;;;;;;5037406;28;20054;-88
2021/03/21 01:18:59;;;;;;;4.70;4.30;;;-2.80;88.00;;;;;;5041586;28;20044;-88
2021/03/21 01:21:32;;;;;;;10.95;6.85;;;-2.80;87.70;;;;;;5057668;28;20036;-88
2021/03/21 01:24:01;;;;;;;10.90;5.50;;;-2.80;87.00;;;;;;5042428;28;20055;-88
2021/03/21 01:26:29;;;;;;;8.77;7.88;;;-2.80;88.30;;;;;;5051317;28;20047;-88
2021/03/21 01:28:58;;;;;;;9.73;6.35;;;-2.80;88.00;;;;;;5032350;28;20048;-89
2021/03/21 01:31:29;;;;;;;7.22;6.07;;;-2.80;87.60;;;;;;5022958;28;20048;-88
2021/03/21 01:34:06;;;;;;;6.72;5.95;;;-2.80;86.70;;;;;;5038445;28;20052;-88
2021/03/21 01:36:42;;;;;;;6.07;5.25;;;-2.80;88.00;;;;;;5021731;28;20037;-89
2021/03/21 01:39:36;;;;;;;5.95;5.30;;;-2.80;84.80;;;;;;5022537;28;20071;-88
2021/03/21 01:42:15;;;;;;;10.57;6.68;;;-2.70;85.30;;;;;;5003975;28;20053;-88
2021/03/21 01:45:25;;;;;;;9.98;6.57;;;-2.80;87.60;;;;;;4998214;28;20149;-87
2021/03/21 01:47:53;;;;;;;6.85;5.78;;;-2.80;86.20;;;;;;4977883;28;20455;-88
2021/03/21 01:50:24;;;;;;;10.35;5.90;;;-2.80;86.40;;;;;;4979921;28;20049;-88
2021/03/21 01:52:55;;;;;;;6.20;5.65;;;-2.80;90.00;;;;;;4985082;28;20050;-88
2021/03/21 01:55:25;;;;;;;9.23;6.40;;;-2.80;86.60;;;;;;5018094;28;20056;-88
2021/03/21 01:58:15;;;;;;;6.60;6.00;;;-2.80;86.20;;;;;;5017095;28;20046;-88
2021/03/21 02:00:47;;;;;;;7.95;7.18;;;-2.80;87.10;;;;;;5000753;28;20054;-88
2021/03/21 02:03:29;;;;;;;7.95;6.53;;;-2.90;85.10;;;;;;5001279;28;20488;-87
2021/03/21 02:06:15;;;;;;;7.60;6.40;;;-2.80;89.50;;;;;;5000648;28;20050;-87
2021/03/21 02:09:01;;;;;;;7.90;6.25;;;-2.80;86.10;;;;;;5040935;28;20271;-88
2021/03/21 02:11:53;;;;;;;7.40;4.75;;;-2.80;85.50;;;;;;5025547;28;20051;-88
2021/03/21 02:14:54;;;;;;;6.18;5.57;;;-2.80;86.50;;;;;;5043189;28;20059;-88
2021/03/21 02:17:30;;;;;;;5.95;4.90;;;-2.80;85.60;;;;;;5072486;28;20040;-88
2021/03/21 02:20:32;;;;;;;5.80;5.28;;;-2.80;86.90;;;;;;5078224;28;20482;-88
2021/03/21 02:23:23;;;;;;;7.38;6.65;;;-2.80;87.30;;;;;;5046263;28;20048;-88
2021/03/21 02:26:16;;;;;;;6.93;4.55;;;-2.80;85.50;;;;;;5061468;28;20051;-88
2021/03/21 02:29:14;;;;;;;8.13;6.70;;;-2.70;85.30;;;;;;5077149;28;20040;-87
2021/03/21 02:32:11;;;;;;;7.25;5.75;;;-2.80;86.70;;;;;;5045073;28;20055;-74
2021/03/21 02:34:57;;;;;;;6.82;5.07;;;-2.80;86.90;;;;;;5052191;28;20643;-74
2021/03/21 02:37:43;;;;;;;6.30;5.25;;;-2.80;87.30;;;;;;5093606;28;20067;-74
2021/03/21 02:40:44;;;;;;;6.07;5.35;;;-2.80;88.50;;;;;;5093734;28;20060;-74
2021/03/21 02:43:24;;;;;;;6.72;6.05;;;-2.80;89.70;;;;;;5061570;28;20051;-73
2021/03/21 02:45:56;;;;;;;9.60;5.10;;;-2.90;87.90;;;;;;5046461;28;20043;-88
2021/03/21 02:48:42;;;;;;;5.97;5.28;;;-2.90;87.30;;;;;;5056895;28;20052;-89
2021/03/21 02:51:27;;;;;;;5.63;4.63;;;-2.90;88.00;;;;;;5041580;28;20067;-88
2021/03/21 02:54:40;;;;;;;8.60;5.45;;;-2.90;86.50;;;;;;5042028;28;20041;-88
2021/03/21 02:57:39;;;;;;;6.93;4.78;;;-2.90;88.70;;;;;;4996283;28;20045;-87
2021/03/21 03:00:28;;;;;;;8.60;5.65;;;-2.90;87.80;;;;;;5015327;28;20045;-88
2021/03/21 03:03:10;;;;;;;8.27;5.45;;;-2.90;89.10;;;;;;5015761;28;20052;-88
2021/03/21 03:05:56;;;;;;;5.45;4.45;;;-2.90;86.00;;;;;;5003111;28;20049;-87
2021/03/21 03:08:37;;;;;;;5.72;4.50;;;-2.90;86.60;;;;;;4983531;28;20507;-87
2021/03/21 03:11:28;;;;;;;6.80;5.13;;;-3.00;87.60;;;;;;5000155;28;20481;-88
2021/03/21 03:14:09;;;;;;;6.53;4.75;;;-2.90;87.20;;;;;;4983939;28;20038;-88
2021/03/21 03:16:53;;;;;;;8.27;5.82;;;-2.90;86.90;;;;;;4969704;28;20056;-88
2021/03/21 03:19:36;;;;;;;6.88;5.05;;;-2.90;87.00;;;;;;4980811;28;20061;-88
2021/03/21 03:22:21;;;;;;;5.32;4.82;;;-2.90;87.30;;;;;;4995890;28;20038;-88
2021/03/21 03:25:32;;;;;;;5.70;4.72;;;-2.80;87.30;;;;;;4987256;28;20038;-89
2021/03/21 03:28:20;;;;;;;5.63;5.05;;;-2.90;88.00;;;;;;4995857;28;20046;-88
2021/03/21 03:31:08;;;;;;;6.10;5.50;;;-2.90;86.70;;;;;;4980033;28;20100;-89
2021/03/21 03:33:54;;;;;;;7.10;4.93;;;-2.90;88.40;;;;;;4952624;28;20046;-88
2021/03/21 03:36:59;;;;;;;;;;;;;;;;;;;;;
2021/03/21 03:39:35;;;;;;;8.20;4.60;;;-2.90;87.10;;;;;;4941331;28;20050;-88
2021/03/21 03:42:41;;;;;;;7.18;6.47;;;-2.90;86.80;;;;;;4926367;28;20046;-88
2021/03/21 03:45:38;;;;;;;8.48;7.57;;;-2.90;87.70;;;;;;4948326;28;20043;-89
2021/03/21 03:48:46;;;;;;;7.70;6.05;;;-2.90;86.40;;;;;;4919068;29;20055;-88
2021/03/21 03:51:57;;;;;;;6.57;4.20;;;-2.80;87.70;;;;;;4913947;28;20508;-89
2021/03/21 03:55:45;;;;;;;6.57;5.80;;;-2.90;88.50;;;;;;4912080;29;20043;-89
2021/03/21 03:58:54;;;;;;;4.80;4.40;;;-2.80;88.20;;;;;;4930753;28;20413;-88
2021/03/21 04:01:55;;;;;;;4.78;4.38;;;-2.90;87.70;;;;;;4980500;28;20208;-87
2021/03/21 04:04:40;;;;;;;9.25;6.65;;;-2.90;87.50;;;;;;4966248;28;20062;-88
2021/03/21 04:07:30;;;;;;;7.85;6.75;;;-2.90;87.60;;;;;;4991439;28;20058;-87
2021/03/21 04:10:24;;;;;;;10.52;4.50;;;-2.80;85.00;;;;;;4975062;28;20043;-88
2021/03/21 04:13:18;;;;;;;;;;;;;;;;;;;;;
2021/03/21 04:16:18;;;;;;;8.63;6.88;;;-2.80;85.90;;;;;;5007932;28;20546;-89
2021/03/21 04:19:36;;;;;;;5.30;4.85;;;-2.80;86.30;;;;;;4970808;28;20045;-89
2021/03/21 04:22:17;;;;;;;7.18;6.45;;;-2.80;85.90;;;;;;5004978;28;20045;-87
2021/03/21 04:25:08;;;;;;;6.68;5.63;;;-2.80;86.30;;;;;;4991662;28;20046;-88
2021/03/21 04:28:10;;;;;;;6.93;5.75;;;-2.80;88.20;;;;;;5035354;28;20060;-88
2021/03/21 04:31:01;;;;;;;9.98;5.18;;;-2.80;85.80;;;;;;5050231;28;20479;-88
2021/03/21 04:33:59;;;;;;;7.40;5.15;;;-2.80;88.20;;;;;;5040746;28;20048;-88
2021/03/21 04:36:58;;;;;;;5.05;4.55;;;-2.80;85.40;;;;;;5073312;28;20045;-87
2021/03/21 04:39:40;;;;;;;6.65;4.78;;;-2.70;86.90;;;;;;5071751;28;20041;-88
2021/03/21 04:43:29;;;;;;;6.22;5.18;;;-2.70;84.00;;;;;;5045265;28;20514;-87
2021/03/21 04:46:38;;;;;;;5.45;4.72;;;-2.70;83.20;;;;;;4942092;28;20523;-88
2021/03/21 04:50:28;;;;;;;8.30;4.97;;;-2.70;86.80;;;;;;5041417;28;20053;-88
2021/03/21 04:53:12;;;;;;;6.28;5.03;;;-2.60;85.70;;;;;;5032467;28;20101;-87
2021/03/21 04:56:12;;;;;;;4.88;4.22;;;-2.60;86.20;;;;;;5050884;28;20052;-88
2021/03/21 04:58:57;;;;;;;6.38;5.78;;;-2.50;83.50;;;;;;5017964;28;20399;-87
2021/03/21 05:02:16;;;;;;;4.80;4.18;;;-2.60;82.60;;;;;;5050895;28;20044;-87
2021/03/21 05:05:50;;;;;;;5.07;4.55;;;-2.60;86.30;;;;;;5002982;28;20037;-88
2021/03/21 05:09:30;;;;;;;6.57;5.28;;;-2.60;86.50;;;;;;5018630;28;20471;-88
2021/03/21 05:13:06;;;;;;;11.60;4.80;;;-2.60;84.00;;;;;;5016274;28;20048;-88
2021/03/21 05:16:22;;;;;;;7.82;4.75;;;-2.60;83.70;;;;;;4994431;28;20060;-88
2021/03/21 05:19:45;;;;;;;7.60;5.65;;;-2.70;83.00;;;;;;4980091;28;20492;-88
2021/03/21 05:22:47;;;;;;;8.00;7.22;;;-2.60;84.40;;;;;;4972642;28;20496;-88
2021/03/21 05:26:14;;;;;;;7.47;5.60;;;-2.60;85.10;;;;;;4996443;28;20373;-89
2021/03/21 05:29:58;;;;;;;6.85;5.28;;;-2.50;84.30;;;;;;4957070;28;20483;-88
2021/03/21 05:43:29;;;;;;;;;;;;;;;;;;;;;
2021/03/21 05:47:46;;;;;;;9.85;6.47;;;-2.60;86.20;;;;;;4910472;28;20046;-88
2021/03/21 05:51:24;;;;;;;6.43;5.60;;;-2.60;87.30;;;;;;4887101;29;20060;-87
2021/03/21 06:00:57;;;;;;;6.18;5.63;;;-2.60;89.00;;;;;;4820895;29;20053;-87
2021/03/21 06:08:41;;;;;;;8.10;6.03;;;-2.60;88.40;;;;;;4970487;28;21203;-89
2021/03/21 06:11:43;;;;;;;7.13;5.85;;;-2.60;89.60;;;;;;4979685;28;20053;-88
2021/03/21 06:14:56;;;;;;;5.00;4.50;;;-2.50;90.30;;;;;;4968909;28;20042;-88
2021/03/21 06:22:17;;;;;;;6.53;5.88;;;-2.40;86.80;;;;;;5028859;28;20119;-88
2021/03/21 06:29:35;;;;;;;8.80;4.53;;;-2.30;86.00;;;;;;5049266;28;20037;-89
2021/03/21 06:38:05;;;;;;;6.18;5.07;;;-2.00;87.00;;;;;;5021941;28;20060;-88
2021/03/21 06:41:01;;;;;;;5.18;4.68;;;-2.00;86.10;;;;;;5017999;28;20053;-88
2021/03/21 06:43:59;;;;;;;10.85;7.00;;;-1.80;87.20;;;;;;5034406;28;20054;-87
2021/03/21 06:47:29;;;;;;;6.40;5.80;;;-1.70;85.20;;;;;;5019872;28;20755;-88
2021/03/21 06:50:57;;;;;;;7.20;5.05;;;-1.70;84.20;;;;;;4989722;28;20054;-88
2021/03/21 06:54:29;;;;;;;5.15;4.78;;;-1.70;82.70;;;;;;5014638;28;20069;-88
2021/03/21 06:57:56;;;;;;;4.13;3.72;;;-1.70;87.70;;;;;;5011824;28;20046;-89
2021/03/21 07:01:21;;;;;;;11.88;4.13;;;-1.70;84.40;;;;;;4968862;28;20765;-88
2021/03/21 07:05:07;;;;;;;9.18;5.10;;;-1.60;82.70;;;;;;4961827;28;20053;-88
2021/03/21 07:09:14;;;;;;;;;;;;;;;;;;;;;
2021/03/21 07:13:11;;;;;;;8.20;4.47;;;-1.40;83.10;;;;;;4978354;28;20050;-80
2021/03/21 07:16:06;;;;;;;5.60;4.35;;;-1.40;82.60;;;;;;4987905;28;20084;-80
2021/03/21 07:18:57;;;;;;;5.97;4.75;;;-1.30;86.50;;;;;;5008312;28;20396;-80
2021/03/21 07:21:51;;;;;;;4.20;3.80;;;-1.30;82.90;;;;;;5019322;28;20048;-80
2021/03/21 07:24:40;;;;;;;5.30;4.80;;;-1.20;84.20;;;;;;5071230;28;20045;-80
2021/03/21 07:27:46;;;;;;;7.78;6.60;;;-1.20;84.90;;;;;;5094694;28;20051;-80
2021/03/21 07:30:51;;;;;;;4.70;4.20;;;-1.20;83.20;;;;;;5079092;28;20036;-80
2021/03/21 07:33:35;;;;;;;4.47;4.07;;;-1.20;83.30;;;;;;5073494;28;20048;-80
2021/03/21 07:36:18;;;;;;;11.18;5.50;;;-1.10;82.10;;;;;;5056655;28;20103;-80
2021/03/21 07:39:16;;;;;;;4.15;3.67;;;-1.00;83.10;;;;;;5063955;28;20044;-80
2021/03/21 07:42:07;;;;;;;4.60;4.00;;;-1.00;81.30;;;;;;5035454;28;20060;-80
2021/03/21 07:44:49;;;;;;;4.40;4.00;;;-1.00;80.40;;;;;;5035931;28;20049;-80
2021/03/21 07:47:44;;;;;;;7.13;4.00;;;-0.90;82.50;;;;;;5052917;28;20053;-80
2021/03/21 07:50:38;;;;;;;4.75;4.18;;;-0.80;79.50;;;;;;5051718;28;20060;-79
2021/03/21 07:53:19;;;;;;;3.78;3.47;;;-0.90;81.00;;;;;;5042779;28;20080;-79
2021/03/21 07:56:14;;;;;;;7.15;4.28;;;-0.90;80.00;;;;;;5039622;28;20055;-79
2021/03/21 07:58:57;;;;;;;5.43;4.07;;;-0.80;81.10;;;;;;5055332;28;20517;-80
2021/03/21 08:01:25;;;;;;;3.92;3.63;;;-0.70;78.50;;;;;;5038726;28;20045;-80
2021/03/21 08:04:07;;;;;;;4.80;4.38;;;-0.70;76.70;;;;;;5073345;28;20056;-79
2021/03/21 08:06:48;;;;;;;5.97;5.38;;;-0.70;79.80;;;;;;5072650;28;20041;-80
2021/03/21 08:09:24;;;;;;;4.30;3.88;;;-0.60;78.80;;;;;;5083939;28;20044;-80
2021/03/21 08:12:05;;;;;;;4.43;3.55;;;-0.70;77.80;;;;;;5018303;28;20049;-80
2021/03/21 08:14:42;;;;;;;5.53;4.82;;;-0.70;79.00;;;;;;5052770;28;20037;-80
2021/03/21 08:17:18;;;;;;;5.50;4.95;;;-0.70;77.00;;;;;;5035233;28;20045;-80
2021/03/21 08:19:46;;;;;;;5.38;4.88;;;-0.80;77.10;;;;;;5069372;28;20044;-80
2021/03/21 08:22:18;;;;;;;4.45;4.05;;;-0.80;79.40;;;;;;5072842;28;20071;-80
2021/03/21 08:24:46;;;;;;;;;;;-0.80;81.40;;;;;;5066516;28;20083;-80
2021/03/21 08:27:29;;;;;;;4.90;4.38;;;-0.80;81.70;;;;;;5067920;28;19920;-80
2021/03/21 08:30:06;;;;;;;4.45;4.03;;;-0.80;79.40;;;;;;5066340;28;20049;-80
2021/03/21 08:32:48;;;;;;;5.97;4.65;;;-0.80;79.30;;;;;;5065440;28;20048;-80
2021/03/21 08:35:21;;;;;;;5.80;4.55;;;-0.70;81.10;;;;;;5067609;28;20052;-80
2021/03/21 08:37:51;;;;;;;5.03;4.57;;;-0.70;81.80;;;;;;5067907;28;20490;-80
2021/03/21 08:40:25;;;;;;;3.90;3.38;;;-0.70;83.30;;;;;;5064595;28;20786;-76
2021/03/21 08:43:09;;;;;;;6.63;4.43;;;-0.70;80.50;;;;;;5063784;28;20064;-75
2021/03/21 08:45:40;;;;;;;8.70;4.47;;;-0.70;80.10;;;;;;5065643;28;20063;-86
2021/03/21 08:48:13;;;;;;;7.03;4.55;;;-0.70;81.10;;;;;;5018182;28;20046;-86
2021/03/21 08:51:18;;;;;;;6.10;4.05;;;-0.80;80.00;;;;;;4995659;28;20045;-86
2021/03/21 08:54:00;;;;;;;7.60;4.82;;;-0.70;79.20;;;;;;5044441;28;20044;-86
2021/03/21 08:56:30;;;;;;;4.80;3.90;;;-0.60;79.10;;;;;;5021842;28;20053;-86
2021/03/21 08:59:21;;;;;;;6.20;5.00;;;-0.60;81.50;;;;;;5022517;28;20410;-85
2021/03/21 09:01:59;;;;;;;5.73;3.73;;;-0.60;83.00;;;;;;5054149;28;20051;-82
2021/03/21 09:05:07;;;;;;;7.07;4.82;;;-0.50;80.70;;;;;;5021452;28;21008;-82
2021/03/21 09:07:36;;;;;;;6.15;4.38;;;-0.50;80.10;;;;;;5038150;28;20044;-87
2021/03/21 09:10:20;;;;;;;4.80;4.25;;;-0.40;80.70;;;;;;5073447;28;20043;-82
2021/03/21 09:12:55;;;;;;;5.15;4.40;;;-0.40;78.60;;;;;;5091625;28;20048;-83
2021/03/21 09:15:28;;;;;;;3.85;3.45;;;-0.40;80.40;;;;;;5046251;28;20131;-82
2021/03/21 09:18:18;;;;;;;13.35;5.70;;;-0.40;79.50;;;;;;5017473;28;20044;-82
2021/03/21 09:20:46;;;;;;;8.30;5.03;;;-0.40;79.80;;;;;;5034164;28;20053;-82
2021/03/21 09:23:37;;;;;;;5.18;4.35;;;-0.40;77.90;;;;;;5009413;28;20052;-81
2021/03/21 09:26:12;;;;;;;6.90;5.00;;;-0.40;79.20;;;;;;5071924;28;20040;-81
2021/03/21 09:28:46;;;;;;;5.75;5.20;;;-0.40;78.50;;;;;;5053509;28;20044;-85
2021/03/21 09:31:15;;;;;;;5.68;4.85;;;-0.30;82.40;;;;;;5055074;28;20045;-83
2021/03/21 09:34:51;;;;;;;4.78;4.28;;;-0.40;76.90;;;;;;5042453;28;20051;-83
2021/03/21 09:37:24;;;;;;;6.47;4.50;;;-0.40;79.50;;;;;;5051037;28;20049;-79
2021/03/21 09:39:57;;;;;;;5.30;4.28;;;-0.30;80.30;;;;;;5061620;28;20045;-81
2021/03/21 09:42:25;;;;;;;4.93;4.32;;;-0.30;80.70;;;;;;5050136;28;20507;-81
2021/03/21 09:44:52;;;;;;;6.78;3.72;;;-0.30;81.30;;;;;;5033793;28;20049;-81
2021/03/21 09:47:36;;;;;;;7.93;4.70;;;-0.30;80.50;;;;;;5051823;28;20491;-81
2021/03/21 09:50:21;;;;;;;9.25;5.03;;;-0.30;80.10;;;;;;5034163;28;20040;-81
2021/03/21 09:52:57;;;;;;;4.70;4.30;;;-0.30;79.20;;;;;;5033897;28;20045;-81
2021/03/21 09:55:32;;;;;;;6.07;5.05;;;-0.20;81.20;;;;;;5051636;28;20060;-81
2021/03/21 09:58:13;;;;;;;5.25;4.75;;;-0.10;80.20;;;;;;5017644;28;20041;-81
2021/03/21 10:00:47;;;;;;;5.23;4.17;;;0.00;78.30;;;;;;5046536;28;20754;-82
2021/03/21 10:03:32;;;;;;;4.30;3.75;;;0.10;78.60;;;;;;5053926;28;20403;-81
2021/03/21 10:06:17;;;;;;;4.90;3.92;;;0.10;79.00;;;;;;5020993;28;20036;-82
2021/03/21 10:08:53;;;;;;;5.78;5.15;;;0.10;78.40;;;;;;5079823;28;20075;-82
2021/03/21 10:11:40;;;;;;;7.03;5.00;;;0.10;76.40;;;;;;5039971;28;20051;-78
2021/03/21 10:14:29;;;;;;;5.20;4.03;;;0.10;77.50;;;;;;5041770;28;20041;-77
2021/03/21 10:17:16;;;;;;;4.93;4.43;;;0.30;77.30;;;;;;5046483;28;20064;-76
2021/03/21 10:19:51;;;;;;;9.75;5.40;;;0.20;78.90;;;;;;5043414;28;20049;-76
2021/03/21 10:22:18;;;;;;;7.15;4.75;;;0.20;76.50;;;;;;5071958;28;20041;-82
2021/03/21 10:24:48;;;;;;;5.25;4.75;;;0.20;76.40;;;;;;5075023;28;20041;-82
2021/03/21 10:27:24;;;;;;;5.50;5.10;;;0.10;76.50;;;;;;5074046;28;20056;-76
2021/03/21 10:30:22;;;;;;;7.65;6.45;;;0.10;80.20;;;;;;5040287;28;20036;-75
2021/03/21 10:33:29;;;;;;;9.73;6.18;;;0.20;76.40;;;;;;5045118;28;20437;-76
2021/03/21 10:35:57;;;;;;;5.35;4.88;;;0.30;80.30;;;;;;5059820;28;20053;-77
2021/03/21 10:38:45;;;;;;;6.20;5.03;;;0.30;77.00;;;;;;5078933;28;20521;-78
2021/03/21 10:41:51;;;;;;;5.53;4.43;;;0.20;77.80;;;;;;5080277;28;20059;-78
2021/03/21 10:44:39;;;;;;;4.57;3.67;;;0.30;80.40;;;;;;5057076;28;20049;-78
2021/03/21 10:47:27;;;;;;;6.40;4.97;;;0.30;82.50;;;;;;5037170;28;20056;-80
2021/03/21 10:49:56;;;;;;;7.72;4.65;;;0.40;80.50;;;;;;5056882;28;20039;-78
2021/03/21 10:52:36;;;;;;;4.55;3.63;;;0.40;79.30;;;;;;5065905;28;20053;-78
2021/03/21 10:55:28;;;;;;;7.32;4.22;;;0.30;79.30;;;;;;5074354;28;20403;-75
2021/03/21 10:58:18;;;;;;;6.55;5.25;;;0.30;79.70;;;;;;5072687;28;20074;-77
2021/03/21 11:01:17;;;;;;;6.22;4.80;;;0.20;78.40;;;;;;5073227;28;20047;-77
2021/03/21 11:03:58;;;;;;;6.07;5.45;;;0.40;76.20;;;;;;5038963;28;20059;-80
2021/03/21 11:06:32;;;;;;;6.03;5.40;;;0.50;81.20;;;;;;5044451;28;20067;-79
2021/03/21 11:09:15;;;;;;;6.97;5.28;;;0.40;78.10;;;;;;5070599;28;20064;-79
2021/03/21 11:11:45;;;;;;;5.18;4.68;;;0.50;83.50;;;;;;5072730;28;20064;-83
2021/03/21 11:14:17;;;;;;;4.53;4.13;;;0.40;77.70;;;;;;5070009;28;20047;-80
2021/03/21 11:17:09;;;;;;;7.45;4.32;;;0.30;78.70;;;;;;5040138;28;20048;-80
2021/03/21 11:19:50;;;;;;;5.95;4.82;;;0.40;79.70;;;;;;5024719;28;20057;-80
2021/03/21 11:22:35;;;;;;;6.35;4.45;;;0.40;77.30;;;;;;5032650;28;20500;-79
2021/03/21 11:25:13;;;;;;;8.98;5.13;;;0.40;80.30;;;;;;5027313;28;20771;-79
2021/03/21 11:27:48;;;;;;;4.63;4.22;;;0.40;81.90;;;;;;5036599;28;20409;-79
2021/03/21 11:30:26;;;;;;;4.60;4.18;;;0.50;80.60;;;;;;5032599;28;20049;-80
2021/03/21 11:33:40;;;;;;;6.43;5.03;;;0.40;81.40;;;;;;5014729;28;20042;-77
2021/03/21 11:36:29;;;;;;;4.60;4.20;;;0.40;82.70;;;;;;5028791;28;20602;-77
2021/03/21 11:38:57;;;;;;;5.88;5.30;;;0.50;83.70;;;;;;5003879;28;20079;-76
2021/03/21 11:41:37;;;;;;;6.55;4.45;;;0.60;80.50;;;;;;5032404;28;20038;-76
2021/03/21 11:44:26;;;;;;;8.38;5.47;;;0.70;82.20;;;;;;5033111;28;20061;-76
2021/03/21 11:46:56;;;;;;;7.35;5.13;;;1.00;81.50;;;;;;5014525;28;20548;-77
2021/03/21 11:49:25;;;;;;;5.50;5.00;;;0.90;82.20;;;;;;5032444;28;20060;-78
2021/03/21 11:52:01;;;;;;;5.43;4.32;;;0.80;80.50;;;;;;5029840;28;20042;-77
2021/03/21 11:54:32;;;;;;;8.40;5.72;;;0.70;82.80;;;;;;5031190;28;20062;-74
2021/03/21 11:57:09;;;;;;;5.25;4.45;;;0.90;84.70;;;;;;5037348;28;20064;-76
2021/03/21 12:00:00;;;;;;;6.00;5.50;;;1.10;80.90;;;;;;5028103;28;20400;-76
2021/03/21 12:02:48;;;;;;;4.97;4.55;;;0.80;80.30;;;;;;5030886;28;20491;-77
2021/03/21 12:05:22;;;;;;;16.60;5.57;;;1.00;81.30;;;;;;5029176;28;20503;-77
2021/03/21 12:07:49;;;;;;;4.75;4.35;;;1.00;82.80;;;;;;5031818;28;20088;-77
2021/03/21 12:10:32;;;;;;;9.98;5.78;;;1.20;81.00;;;;;;5027286;28;20514;-76
2021/03/21 12:13:39;;;;;;;7.53;5.68;;;0.90;79.20;;;;;;5031075;28;20041;-76
2021/03/21 12:16:40;;;;;;;6.60;5.63;;;0.90;82.00;;;;;;5012548;28;20060;-76
2021/03/21 12:19:38;;;;;;;5.60;5.10;;;0.80;80.40;;;;;;5033472;28;20049;-76
2021/03/21 12:22:24;;;;;;;6.35;5.75;;;0.70;81.00;;;;;;5041155;28;20687;-75
2021/03/21 12:24:57;;;;;;;5.85;5.28;;;0.80;81.30;;;;;;5049487;28;20041;-76
2021/03/21 12:27:35;;;;;;;7.38;5.38;;;0.80;84.30;;;;;;5050583;28;20048;-76
2021/03/21 12:30:13;;;;;;;9.18;6.60;;;0.90;80.20;;;;;;5050058;28;20047;-76
2021/03/21 12:32:45;;;;;;;8.63;7.00;;;0.80;82.60;;;;;;5049371;28;20515;-76
2021/03/21 12:35:23;;;;;;;6.80;5.00;;;0.90;83.30;;;;;;5050078;28;20411;-76
2021/03/21 12:38:00;;;;;;;10.25;6.40;;;1.00;79.50;;;;;;5048975;28;20522;-76
2021/03/21 12:40:43;;;;;;;5.88;5.38;;;1.10;80.30;;;;;;5048762;28;20396;-76
2021/03/21 12:43:30;;;;;;;8.85;6.90;;;1.20;79.70;;;;;;5054626;28;20056;-75
2021/03/21 12:46:09;;;;;;;7.15;6.40;;;1.30;81.70;;;;;;5047913;28;20128;-75
2021/03/21 12:49:03;;;;;;;11.80;5.38;;;1.20;84.90;;;;;;5050117;28;20045;-76
2021/03/21 12:51:34;;;;;;;7.90;6.65;;;1.10;80.70;;;;;;5049786;28;20095;-75
2021/03/21 12:54:04;;;;;;;7.03;5.90;;;1.00;80.40;;;;;;5049651;28;20041;-76
2021/03/21 12:56:32;;;;;;;9.25;5.38;;;1.20;85.60;;;;;;5032720;28;20045;-75
2021/03/21 12:58:59;;;;;;;10.20;6.97;;;1.10;81.80;;;;;;5047682;28;20492;-76
2021/03/21 13:01:26;;;;;;;8.30;5.55;;;0.90;82.60;;;;;;5046576;28;20041;-78
2021/03/21 13:03:54;;;;;;;7.78;6.32;;;1.00;85.30;;;;;;5048113;28;20064;-75
2021/03/21 13:06:23;;;;;;;7.15;5.85;;;1.00;85.60;;;;;;5046458;28;20435;-75
2021/03/21 13:08:54;;;;;;;10.65;7.07;;;1.20;84.50;;;;;;5047772;28;20407;-76
2021/03/21 13:11:21;;;;;;;11.73;5.88;;;1.10;88.30;;;;;;5046982;28;20498;-75
2021/03/21 13:13:48;;;;;;;7.97;5.85;;;0.90;85.40;;;;;;5036705;28;20064;-77
2021/03/21 13:16:17;;;;;;;10.38;7.53;;;0.70;86.80;;;;;;5049205;28;20060;-76
2021/03/21 13:18:44;;;;;;;8.90;7.88;;;0.60;88.10;;;;;;5065155;28;20153;-76
2021/03/21 13:21:13;;;;;;;7.85;6.28;;;0.60;87.20;;;;;;5047804;28;20825;-77
2021/03/21 13:23:43;;;;;;;10.65;8.40;;;0.50;88.30;;;;;;5067703;28;20064;-76
2021/03/21 13:26:10;;;;;;;10.32;7.95;;;0.50;89.70;;;;;;5068578;28;20402;-77
2021/03/21 13:28:38;;;;;;;10.38;7.32;;;0.40;88.30;;;;;;5066629;28;20522;-77
2021/03/21 13:31:06;;;;;;;11.82;6.13;;;0.40;89.80;;;;;;5048896;28;20053;-77
2021/03/21 13:33:34;;;;;;;11.77;7.63;;;0.40;89.30;;;;;;5063842;28;20040;-77
2021/03/21 13:36:09;;;;;;;13.85;7.72;;;0.40;89.50;;;;;;5066798;28;20056;-79
2021/03/21 13:38:37;;;;;;;7.40;5.93;;;0.40;88.80;;;;;;5067010;28;20036;-78
2021/03/21 13:41:05;;;;;;;7.53;5.82;;;0.40;88.60;;;;;;5068336;28;20041;-78
2021/03/21 13:43:33;;;;;;;7.65;5.88;;;0.40;90.10;;;;;;5069133;28;20045;-78
2021/03/21 13:46:02;;;;;;;6.60;5.60;;;0.40;88.60;;;;;;5051100;28;20048;-77
2021/03/21 13:48:30;;;;;;;7.38;6.43;;;0.30;89.10;;;;;;5072843;28;20415;-78
2021/03/21 13:50:59;;;;;;;13.30;7.35;;;0.30;88.90;;;;;;5073782;28;20119;-77
2021/03/21 13:53:30;;;;;;;8.85;6.75;;;0.20;90.70;;;;;;5054706;28;20067;-77
2021/03/21 13:56:01;;;;;;;11.55;6.32;;;0.30;90.70;;;;;;5073956;28;20045;-77
2021/03/21 13:58:29;;;;;;;11.90;7.53;;;0.30;91.50;;;;;;5073428;28;20044;-78
2021/03/21 14:00:56;;;;;;;10.63;8.20;;;0.20;91.40;;;;;;5073183;28;20294;-77
2021/03/21 14:03:25;;;;;;;11.63;6.10;;;0.30;90.70;;;;;;5073414;28;20053;-77
2021/03/21 14:05:53;;;;;;;12.43;6.82;;;0.40;90.80;;;;;;5050549;28;20041;-77
2021/03/21 14:08:21;;;;;;;19.08;8.48;;;0.60;90.70;;;;;;5034490;28;20057;-77
2021/03/21 14:10:48;;;;;;;10.02;7.63;;;0.60;91.00;;;;;;5053752;28;20080;-77
2021/03/21 14:13:16;;;;;;;10.70;6.05;;;0.70;91.30;;;;;;5052538;28;20444;-77
2021/03/21 14:15:44;;;;;;;9.90;6.38;;;0.90;90.40;;;;;;5053759;28;20060;-78
2021/03/21 14:18:13;;;;;;;11.38;8.05;;;0.90;90.60;;;;;;5052901;28;20041;-78
2021/03/21 14:20:44;;;;;;;10.27;8.50;;;0.90;89.80;;;;;;5001787;28;20056;-78
2021/03/21 14:23:15;;;;;;;19.15;8.93;;;0.80;90.20;;;;;;5051023;28;20045;-78
2021/03/21 14:25:43;;;;;;;12.13;8.02;;;0.70;90.90;;;;;;5078859;28;20406;-78
2021/03/21 14:28:13;;;;;;;9.05;7.32;;;0.70;89.70;;;;;;5093435;28;20048;-75
2021/03/21 14:30:42;;;;;;;12.43;8.45;;;0.60;91.00;;;;;;5092864;28;20036;-76
2021/03/21 14:33:10;;;;;;;19.13;10.00;;;0.60;90.50;;;;;;5074854;28;20055;-75
2021/03/21 14:35:39;;;;;;;10.45;8.02;;;0.60;90.30;;;;;;5093404;28;20071;-76
2021/03/21 14:38:12;;;;;;;13.70;9.68;;;0.50;91.20;;;;;;5092683;28;20410;-76
2021/03/21 14:40:43;;;;;;;14.43;7.38;;;0.50;91.00;;;;;;5092821;28;20051;-75
2021/03/21 14:43:13;;;;;;;9.98;8.45;;;0.50;91.00;;;;;;5093638;28;20391;-75
2021/03/21 14:45:42;;;;;;;11.02;6.93;;;0.50;91.40;;;;;;5075536;28;20040;-75
2021/03/21 14:48:10;;;;;;;15.57;8.15;;;0.60;91.10;;;;;;5093387;28;20056;-75
2021/03/21 14:50:38;;;;;;;11.95;7.30;;;0.50;91.10;;;;;;5087115;28;20040;-75
2021/03/21 14:53:09;;;;;;;9.90;7.63;;;0.50;90.90;;;;;;5070886;28;20056;-76
2021/03/21 14:55:43;;;;;;;13.38;9.70;;;0.50;90.80;;;;;;5085286;28;20044;-75
2021/03/21 14:58:16;;;;;;;9.45;8.45;;;0.40;91.00;;;;;;5051713;28;20049;-75
2021/03/21 15:00:44;;;;;;;9.52;8.30;;;0.50;91.10;;;;;;5052024;28;20040;-75
2021/03/21 15:03:12;;;;;;;11.20;8.70;;;0.50;90.10;;;;;;5052891;28;20057;-75
2021/03/21 15:05:40;;;;;;;13.55;8.30;;;0.50;90.60;;;;;;5052232;28;20049;-75
2021/03/21 15:08:27;;;;;;;15.27;10.27;;;0.50;91.40;;;;;;5051845;28;20061;-75